TABULAR FORECAST OF EN-ROUTE CONDITIONS LOW LEVEL    MODEL TA1

DATE: FEBRUARY 01, 2015                                                                        HEIGHT IN FEET MSL

VALID FOR DEPARTURE BETWEEN: 15.00UTC AND 21.30UTC

AND ARRIVAL BETWEEN: 15.00UTC AND 21.30UTC

SPECIAL FEATURES OF THE METEOROLOGICAL SITUATION:

I.T.C.Z. INFLUENCE OVER THE AREA, MOSTLY OVER THE INTERIOR

07° N                            4° N                            2° N

UPPER WINDS

(DEGREES TRUE AND KNOTS)

  10000FT

   5000FT

    2000FT

 TEMPERATURE

(DEGREES CELSIUS)

  

                          

                           080/30    PS 11

                           070/15    PS 16

                           060/20    PS 21

 

CLOUDS

                                         8000                                   

SCT LOC BKN   CUSC ——     

                                        1800                                     

                                          XXX

                 ISOL  TCUCB ——

                                          1500       

VISIBILITY

3 – 8KM IN RAINSHOWERS

SIGNIFICANT WEATHER

SCATTERED SHOWERS, LOCALLY MODERATE AT TIMES, POSSIBLY WITH THUNDER

MOST ACTIVITY IS WITHIN THE INTERIOR

HEIGHT OF 0ΊC ISOTHERM (ft)

+/- 15000

FORECAST LOWEST QNH (hPa)

10113

SUPPLEMENTARY INFORMATION

Issued at NMC on: 15.00UTC FEBRUARY 01, 2014 BY FORECASTER: D. SAMUEL.

 

Note:

1.   Positive and negative values are indicated by the prefix “PS” (plus) and “MS” (minus) respectively.

2.   When a single numerical value of an element is given in a forecast it is to be interpreted as representing

the most probable mean of a range of values which the element may assume during the period of the forecast.

 

ABBREVIATIONS: SKC – 0 oktas, FEW – 1 to 2 oktas, SCT – 3 to 4 oktas, BKN – 5 to 7 oktas, OVC – 8 oktas, LYR –Occasional, FRQ – Frequent, EMBD – Embedded.

 

METAR SMJP 011500Z 05010KT 9999 SCT025 29/22 Q1015 NOSIG=

METAR SMZO 011500Z 02008KT 9999 SCT030 30/22 Q1015 NOSIG=

METAR SMNI 011500Z 08012KT 9999 SCT020 28/23 Q1016=

METAR SMST 011500Z 00000KT 9999 BKN025 30/23 Q////=